Nearby METAR Reports

 

EIDW - Dublin Airport, Ireland
Distance from station: ENE 79km
Updated: 12/12/2019 10:00
Mostly cloudy
Mostly cloudy
 Wind from S
Wind: S 6 km/h
Temperature: 6°C
Dew Point: 6°C
Humidity: 100%
Barometer: 981 hPa
Clouds: Mostly cloudy
Visibility: 10 km
Cloud details: Few Clouds 183 m
Partly cloudy 1524 m
Mostly cloudy 3658 m
2019/12/12 10:00 EIDW 121000Z 18003KT 9999 FEW006 SCT050 BKN120 06/06 Q0981 NOSIG
EIME - Casement (mil), Ireland
Distance from station: ENE 62km
Updated: 12/12/2019 10:00
Light rain, Mostly cloudy
Light rain, Mostly cloudy
 Wind from SW
Wind: SW 15 km/h
Temperature: 7°C
Wind Chill: 4°C
Dew Point: 6°C
Humidity: 93%
Barometer: 981 hPa
Summary: Light rain
Clouds: Mostly cloudy
Visibility: 10 km
Cloud details: Few Clouds 366 m
Partly cloudy 1524 m
Mostly cloudy 3048 m
2019/12/12 10:00 EIME 121000Z 22008KT 9999 -RA FEW012 SCT050 BKN100 07/06 Q0981
EIWF - Waterford Arpt, Ireland
Distance from station: S 111km
Updated: 12/12/2019 10:00
Partly cloudy
Partly cloudy
 Wind from NW
Wind: NW 13 km/h
Temperature: 8°C
Wind Chill: 6°C
Dew Point: 7°C
Humidity: 93%
Barometer: 983 hPa
Clouds: Partly cloudy
Visibility: 10 km
Cloud details: Partly cloudy 518 m
2019/12/12 10:00 EIWF 121000Z 32007KT 9999 SCT017 08/07 Q0983 R03/2/////
 
EINN - Shannon Airport, Ireland
Distance from station: WSW 117km
Updated: 12/12/2019 10:00
Mostly cloudy
Mostly cloudy
 Wind from W
Wind: W 24 km/h, Gust: 43 km/h
Temperature: 9°C
Wind Chill: 6°C
Dew Point: 7°C
Humidity: 87%
Barometer: 984 hPa
Clouds: Mostly cloudy
Visibility: 10 km
Cloud details: Few Clouds 457 m
Few Clouds 549 m
Mostly cloudy 762 m
Mostly cloudy 1219 m
2019/12/12 10:00 EINN 121000Z 27013G23KT 9999 FEW015 FEW018CB BKN025 BKN040 09/07 Q0984 NOSIG
EIKN - Connaught Apt, Ireland
Distance from station: NW 127km
Updated: 12/12/2019 10:00
Fog, Overcast
Fog, Overcast
 Wind from WSW
Wind: WSW 4 km/h
Temperature: 4°C
Dew Point: 4°C
Humidity: 100%
Barometer: 981 hPa
Summary: Fog
Clouds: Overcast
Visibility: 0 km
Cloud details: Overcast 61 m
2019/12/12 10:00 EIKN 121000Z 24002KT 0400 R26/0600U FG VV002 04/04 Q0981 BECMG 9999 SCT008 BKN020
EISG - Sligo Arpt, Ireland
Distance from station: NNW 148km
Updated: 12/12/2019 10:00
Overcast
Overcast
 Wind from varies
Wind: varies 4 km/h
Temperature: 5°C
Dew Point: 5°C
Humidity: 100%
Barometer: 981 hPa
Clouds: Overcast
Visibility: 10 km
Cloud details: Partly cloudy 213 m
Overcast 579 m
2019/12/12 10:00 EISG 121000Z VRB02KT 9999 SCT007 OVC019 05/05 Q0981
 
EICK - Cork Arpt/Corcai, Ireland
Distance from station: SSW 165km
Updated: 12/12/2019 10:00
Mostly cloudy
Mostly cloudy
 Wind from W
Wind: W 24 km/h
Temperature: 8°C
Wind Chill: 4°C
Dew Point: 6°C
Humidity: 87%
Barometer: 985 hPa
Clouds: Mostly cloudy
Visibility: 10 km
Cloud details: Few Clouds 549 m
Mostly cloudy 914 m
2019/12/12 10:00 EICK 121000Z 28013KT 9999 FEW018 BKN030 08/06 Q0985 NOSIG
EGAA - Belfast/Aldergro, United Kingdom
Distance from station: NNE 179km
Updated: 12/12/2019 10:20
Rain, Mostly cloudy
Rain, Mostly cloudy
 Wind from ESE
Wind: ESE 4 km/h
Temperature: 5°C
Dew Point: 5°C
Humidity: 100%
Barometer: 981 hPa
Summary: Rain
Clouds: Mostly cloudy
Visibility: 8 km
Cloud details: Mostly cloudy 274 m
2019/12/12 10:20 EGAA 121020Z 12002KT 8000 RA BKN009 05/05 Q0981
EIKY - Kerry Arpt, Ireland
Distance from station: SW 182km
Updated: 12/12/2019 10:00
Mostly cloudy
Mostly cloudy
 Wind from W
Wind: W 13 km/h
Temperature: 9°C
Wind Chill: 7°C
Dew Point: 7°C
Humidity: 87%
Barometer: 985 hPa
Clouds: Mostly cloudy
Visibility: 10 km
Cloud details: Few Clouds 823 m
Mostly cloudy 1128 m
2019/12/12 10:00 EIKY 121000Z 28007KT 250V320 9999 FEW027 BKN037 09/07 Q0985 RERA
 
EGAC - Belfast Harbour, United Kingdom
Distance from station: NNE 188km
Updated: 12/12/2019 10:20
Light rain, Mostly cloudy
Light rain, Mostly cloudy
 Wind from SW
Wind: SW 7 km/h
Temperature: 6°C
Wind Chill: 4°C
Dew Point: 6°C
Humidity: 100%
Barometer: 981 hPa
Summary: Light rain
Clouds: Mostly cloudy
Visibility: 5 km
Cloud details: Partly cloudy 122 m
Partly cloudy 549 m
Mostly cloudy 792 m
2019/12/12 10:20 EGAC 121020Z 22004KT 5000 -RA SCT004 SCT018 BKN026 06/06 Q0981
EGOV - Valley Raf, United Kingdom
Distance from station: E 188km
Updated: 12/12/2019 10:20
Light rain, Mostly cloudy
Light rain, Mostly cloudy
 Wind from SSE
Wind: SSE 33 km/h
Temperature: 8°C
Wind Chill: 3°C
Dew Point: 7°C
Humidity: 93%
Barometer: 981 hPa
Summary: Light rain
Clouds: Mostly cloudy
Visibility: 10 km
Cloud details: Partly cloudy 183 m
Mostly cloudy 244 m
2019/12/12 10:20 EGOV 121020Z 15018KT 9999 7000SE -RA SCT006 BKN008 08/07 Q0981 TEMPO FEW006 BKN008 RMK YLO1 TEMPO GRN
EGNS - Isle Of Man/Rona, United Kingdom
Distance from station: ENE 207km
Updated: 12/12/2019 10:20
Rain, Overcast
Rain, Overcast
 Wind from SE
Wind: SE 31 km/h
Temperature: 7°C
Wind Chill: 3°C
Dew Point: 6°C
Humidity: 93%
Barometer: 982 hPa
Summary: Rain
Clouds: Overcast
Visibility: 3 km
Cloud details: Few Clouds 122 m
Overcast 183 m
2019/12/12 10:20 EGNS 121020Z 13017KT 3000 RA FEW004 OVC006 07/06 Q0982 NOSIG